createdAt,value
2019-01-29T00:00:07.108Z,17.35
2019-01-29T00:02:35.648Z,16.67
2019-01-29T00:05:05.802Z,18.32
2019-01-29T00:07:34.284Z,19.90
2019-01-29T00:10:02.746Z,18.67
2019-01-29T00:12:31.246Z,18.32
2019-01-29T00:14:59.686Z,19.00
2019-01-29T00:17:28.138Z,24.45
2019-01-29T00:19:56.592Z,20.05
2019-01-29T00:22:33.058Z,18.82
2019-01-29T00:24:55.230Z,20.35
2019-01-29T00:27:23.705Z,22.67
2019-01-29T00:29:52.165Z,20.82
2019-01-29T00:32:20.629Z,17.82
2019-01-29T00:34:49.078Z,20.88
2019-01-29T00:37:17.554Z,19.52
2019-01-29T00:39:46.000Z,24.45
2019-01-29T00:42:14.462Z,24.50
2019-01-29T00:44:42.934Z,24.00
2019-01-29T00:47:11.361Z,21.30
2019-01-29T00:49:39.836Z,21.55
2019-01-29T00:52:08.282Z,24.37
2019-01-29T00:54:36.761Z,21.37
2019-01-29T00:57:05.207Z,24.23
2019-01-29T00:59:33.689Z,26.60
2019-01-29T01:02:02.139Z,23.32
2019-01-29T01:04:30.646Z,25.17
2019-01-29T01:06:59.081Z,23.27
2019-01-29T01:09:27.565Z,22.02
2019-01-29T01:11:55.996Z,16.55
2019-01-29T01:14:24.462Z,16.02
2019-01-29T01:16:52.895Z,14.58
2019-01-29T01:19:21.352Z,15.50
2019-01-29T01:21:49.800Z,11.25
2019-01-29T01:24:18.253Z,10.18
2019-01-29T01:26:46.676Z,9.10
2019-01-29T01:29:15.134Z,8.00
2019-01-29T01:31:43.683Z,6.80
2019-01-29T01:34:12.123Z,8.18
2019-01-29T01:36:40.557Z,9.15
2019-01-29T01:39:09.425Z,6.53
2019-01-29T01:41:37.911Z,11.18
2019-01-29T01:44:06.335Z,9.68
2019-01-29T01:46:34.795Z,10.70
2019-01-29T01:49:03.393Z,13.22
2019-01-29T01:51:33.085Z,13.08
2019-01-29T01:54:01.513Z,15.00
2019-01-29T01:56:29.975Z,11.50
2019-01-29T01:58:58.437Z,11.65
2019-01-29T02:01:26.889Z,10.93
2019-01-29T02:03:55.326Z,13.22
2019-01-29T02:06:23.825Z,12.28
2019-01-29T02:08:52.271Z,10.55
2019-01-29T02:11:20.731Z,12.13
2019-01-29T02:13:49.183Z,13.50
2019-01-29T02:16:17.636Z,9.98
2019-01-29T02:18:46.071Z,11.12
2019-01-29T02:21:14.821Z,12.65
2019-01-29T02:23:43.262Z,12.10
2019-01-29T02:26:11.701Z,11.60
2019-01-29T02:28:40.151Z,10.63
2019-01-29T02:31:08.597Z,10.72
2019-01-29T02:33:37.051Z,11.22
2019-01-29T02:36:05.491Z,9.70
2019-01-29T02:38:33.992Z,10.75
2019-01-29T02:41:02.438Z,13.83
2019-01-29T02:43:31.581Z,9.53
2019-01-29T02:46:00.014Z,8.43
2019-01-29T02:48:28.466Z,6.30
2019-01-29T02:50:56.968Z,7.17
2019-01-29T02:53:25.433Z,8.30
2019-01-29T02:55:53.875Z,8.48
2019-01-29T02:58:22.340Z,6.78
2019-01-29T03:00:50.779Z,8.18
2019-01-29T03:03:19.229Z,6.45
2019-01-29T03:05:47.646Z,7.45
2019-01-29T03:08:16.107Z,8.25
2019-01-29T03:10:44.538Z,7.70
2019-01-29T03:13:12.984Z,11.97
2019-01-29T03:15:41.413Z,7.67
2019-01-29T03:18:09.859Z,10.15
2019-01-29T03:20:38.303Z,8.08
2019-01-29T03:23:06.761Z,9.03
2019-01-29T03:25:35.221Z,10.38
2019-01-29T03:28:03.665Z,7.90
2019-01-29T03:30:32.085Z,8.58
2019-01-29T03:33:00.566Z,7.60
2019-01-29T03:35:29.010Z,7.70
2019-01-29T03:37:57.465Z,11.40
2019-01-29T03:40:27.366Z,8.48
2019-01-29T03:42:55.798Z,6.83
2019-01-29T03:45:24.410Z,8.88
2019-01-29T03:47:52.858Z,8.75
2019-01-29T03:50:23.072Z,11.30
2019-01-29T03:52:51.776Z,10.40
2019-01-29T03:55:20.271Z,11.28
2019-01-29T03:57:48.714Z,10.98
2019-01-29T04:00:22.570Z,11.97
2019-01-29T04:02:50.999Z,11.80
2019-01-29T04:05:19.506Z,14.05
2019-01-29T04:07:47.964Z,13.65
2019-01-29T04:10:17.270Z,19.37
2019-01-29T04:12:46.066Z,11.50
2019-01-29T04:15:16.763Z,13.08
2019-01-29T04:17:45.209Z,12.03
2019-01-29T04:20:16.557Z,14.50
2019-01-29T04:22:45.936Z,12.53
2019-01-29T04:25:14.673Z,11.12
2019-01-29T04:27:43.196Z,14.95
2019-01-29T04:30:17.535Z,14.38
2019-01-29T04:32:45.972Z,11.93
2019-01-29T04:35:14.614Z,13.93
2019-01-29T04:37:43.239Z,15.45
2019-01-29T04:40:16.622Z,12.13
2019-01-29T04:42:45.062Z,12.23
2019-01-29T04:45:15.167Z,15.75
2019-01-29T04:47:43.837Z,13.43
2019-01-29T04:50:14.884Z,13.58
2019-01-29T04:52:43.448Z,14.60
2019-01-29T04:55:14.116Z,16.25
2019-01-29T04:57:43.002Z,14.83
2019-01-29T05:00:14.442Z,13.62
2019-01-29T05:02:42.888Z,15.25
2019-01-29T05:05:12.318Z,15.53
2019-01-29T05:07:40.732Z,12.78
2019-01-29T05:10:14.683Z,13.03
2019-01-29T05:12:43.152Z,11.83
2019-01-29T05:15:19.274Z,13.83
2019-01-29T05:17:47.714Z,15.63
2019-01-29T05:20:21.096Z,16.95
2019-01-29T05:22:49.695Z,13.38
2019-01-29T05:25:18.486Z,18.37
2019-01-29T05:27:47.010Z,12.73
2019-01-29T05:30:21.028Z,13.75
2019-01-29T05:32:49.650Z,14.78
2019-01-29T05:35:18.263Z,20.17
2019-01-29T05:37:48.260Z,13.28
2019-01-29T05:40:18.747Z,12.18
2019-01-29T05:42:47.197Z,14.53
2019-01-29T05:45:18.303Z,15.32
2019-01-29T05:47:46.937Z,13.03
2019-01-29T05:50:16.133Z,11.35
2019-01-29T05:52:44.587Z,13.70
2019-01-29T05:55:14.612Z,16.62
2019-01-29T05:57:43.099Z,11.78
2019-01-29T06:00:15.119Z,14.28
2019-01-29T06:02:43.593Z,10.88
2019-01-29T06:05:12.463Z,11.75
2019-01-29T06:07:40.932Z,11.50
2019-01-29T06:10:15.151Z,9.23
2019-01-29T06:12:43.628Z,10.53
2019-01-29T06:15:17.544Z,18.27
2019-01-29T06:17:46.145Z,6.22
2019-01-29T06:20:18.563Z,14.93
2019-01-29T06:22:47.253Z,9.80
2019-01-29T06:25:15.759Z,12.53
2019-01-29T06:27:44.207Z,10.75
2019-01-29T06:30:15.639Z,11.00
2019-01-29T06:32:44.168Z,11.43
2019-01-29T06:35:14.941Z,9.65
2019-01-29T06:37:43.480Z,9.23
2019-01-29T06:40:14.663Z,10.00
2019-01-29T06:42:43.135Z,11.10
2019-01-29T06:45:14.267Z,10.88
2019-01-29T06:47:42.715Z,13.03
2019-01-29T06:50:13.907Z,11.08
2019-01-29T06:52:42.377Z,10.13
2019-01-29T06:55:13.871Z,9.63
2019-01-29T06:57:42.317Z,6.00
2019-01-29T07:00:13.830Z,10.98
2019-01-29T07:02:42.940Z,9.63
2019-01-29T07:05:11.533Z,9.58
2019-01-29T07:07:39.963Z,12.55
2019-01-29T07:10:16.691Z,11.57
2019-01-29T07:12:45.314Z,8.03
2019-01-29T07:15:18.320Z,7.60
2019-01-29T07:17:48.188Z,9.18
2019-01-29T07:20:16.640Z,9.50
2019-01-29T07:22:45.086Z,8.43
2019-01-29T07:25:14.034Z,10.35
2019-01-29T07:27:42.496Z,9.95
2019-01-29T07:30:13.932Z,9.80
2019-01-29T07:32:42.386Z,9.85
2019-01-29T07:35:10.927Z,9.23
2019-01-29T07:37:39.408Z,11.22
2019-01-29T07:40:10.095Z,12.45
2019-01-29T07:42:38.599Z,11.15
2019-01-29T07:45:10.100Z,11.12
2019-01-29T07:47:38.536Z,12.58
2019-01-29T07:50:09.648Z,13.55
2019-01-29T07:52:38.442Z,17.27
2019-01-29T07:55:09.172Z,12.95
2019-01-29T07:57:37.628Z,16.90
2019-01-29T08:00:14.659Z,13.83
2019-01-29T08:02:43.069Z,10.05
2019-01-29T08:05:12.462Z,17.05
2019-01-29T08:07:41.130Z,13.22
2019-01-29T08:10:15.286Z,14.30
2019-01-29T08:12:43.733Z,13.68
2019-01-29T08:15:14.846Z,19.48
2019-01-29T08:17:43.287Z,14.73
2019-01-29T08:20:13.491Z,15.88
2019-01-29T08:22:41.948Z,19.73
2019-01-29T08:25:11.283Z,13.83
2019-01-29T08:27:39.958Z,12.60
2019-01-29T08:30:19.499Z,11.05
2019-01-29T08:32:47.979Z,17.07
2019-01-29T08:35:17.842Z,13.55
2019-01-29T08:37:46.349Z,16.35
2019-01-29T08:40:16.779Z,14.80
2019-01-29T08:42:45.298Z,12.63
2019-01-29T08:45:20.618Z,14.05
2019-01-29T08:47:49.341Z,17.95
2019-01-29T08:50:25.827Z,15.20
2019-01-29T08:52:55.967Z,16.62
2019-01-29T08:55:24.626Z,14.38
2019-01-29T08:57:53.094Z,12.10
2019-01-29T09:00:22.692Z,13.75
2019-01-29T09:02:51.331Z,14.35
2019-01-29T09:05:19.783Z,15.70
2019-01-29T09:07:48.369Z,11.18
2019-01-29T09:10:18.552Z,13.08
2019-01-29T09:12:47.040Z,17.40
2019-01-29T09:15:17.522Z,13.80
2019-01-29T09:17:45.972Z,17.65
2019-01-29T09:20:17.308Z,17.23
2019-01-29T09:22:45.982Z,13.45
2019-01-29T09:25:21.110Z,10.68
2019-01-29T09:27:45.601Z,23.55
2019-01-29T09:30:18.794Z,15.10
2019-01-29T09:32:47.249Z,12.73
2019-01-29T09:35:15.687Z,13.98
2019-01-29T09:37:44.211Z,16.37
2019-01-29T09:40:15.546Z,12.28
2019-01-29T09:42:44.063Z,12.63
2019-01-29T09:45:15.257Z,14.35
2019-01-29T09:47:43.869Z,13.35
2019-01-29T09:50:15.506Z,15.93
2019-01-29T09:52:43.964Z,20.70
2019-01-29T09:55:15.173Z,14.15
2019-01-29T09:57:43.838Z,21.07
2019-01-29T10:00:21.651Z,12.43
2019-01-29T10:02:50.779Z,12.80
2019-01-29T10:05:19.239Z,20.48
2019-01-29T10:07:47.907Z,12.82
2019-01-29T10:10:16.723Z,14.68
2019-01-29T10:12:45.229Z,16.10
2019-01-29T10:15:19.782Z,11.33
2019-01-29T10:17:48.501Z,11.63
2019-01-29T10:20:17.316Z,11.93
2019-01-29T10:22:45.752Z,12.33
2019-01-29T10:25:15.182Z,11.15
2019-01-29T10:27:43.619Z,14.05
2019-01-29T10:30:15.153Z,14.18
2019-01-29T10:32:43.861Z,14.73
2019-01-29T10:35:15.353Z,12.18
2019-01-29T10:37:43.846Z,13.98
2019-01-29T10:40:15.284Z,9.90
2019-01-29T10:42:43.742Z,9.23
2019-01-29T10:45:15.030Z,9.58
2019-01-29T10:47:43.642Z,9.95
2019-01-29T10:50:20.772Z,13.35
2019-01-29T10:52:49.750Z,12.18
2019-01-29T10:55:18.474Z,9.83
2019-01-29T10:57:47.295Z,10.70
2019-01-29T11:00:18.499Z,10.43
2019-01-29T11:02:47.230Z,9.85
2019-01-29T11:05:18.465Z,10.25
2019-01-29T11:07:46.970Z,16.35
2019-01-29T11:10:19.828Z,14.28
2019-01-29T11:12:48.331Z,10.95
2019-01-29T11:15:22.898Z,12.43
2019-01-29T11:17:51.773Z,10.00
2019-01-29T11:20:20.619Z,13.10
2019-01-29T11:22:49.344Z,10.13
2019-01-29T11:25:20.728Z,16.62
2019-01-29T11:27:49.178Z,17.25
2019-01-29T11:30:20.722Z,16.70
2019-01-29T11:32:49.220Z,16.97
2019-01-29T11:35:17.673Z,14.85
2019-01-29T11:37:46.121Z,15.50
2019-01-29T11:40:25.997Z,12.68
2019-01-29T11:42:54.462Z,14.15
2019-01-29T11:45:28.478Z,16.15
2019-01-29T11:47:57.138Z,12.80
2019-01-29T11:50:25.585Z,18.90
2019-01-29T11:52:54.055Z,17.62
2019-01-29T11:55:22.621Z,15.90
2019-01-29T11:57:51.091Z,14.85
2019-01-29T12:00:27.098Z,18.10
2019-01-29T12:02:55.596Z,18.65
2019-01-29T12:05:24.040Z,20.00
2019-01-29T12:07:52.508Z,19.40
2019-01-29T12:10:20.956Z,18.27
2019-01-29T12:12:49.985Z,18.02
2019-01-29T12:15:20.644Z,17.07
2019-01-29T12:17:52.009Z,12.23
2019-01-29T12:20:21.221Z,13.98
2019-01-29T12:22:49.868Z,12.33
2019-01-29T12:25:18.630Z,10.53
2019-01-29T12:27:47.162Z,13.15
2019-01-29T12:30:21.525Z,13.15
2019-01-29T12:32:51.018Z,9.28
2019-01-29T12:35:19.986Z,8.80
2019-01-29T12:37:48.428Z,11.85
2019-01-29T12:40:17.051Z,8.98
2019-01-29T12:42:45.646Z,12.85
2019-01-29T12:45:16.542Z,15.03
2019-01-29T12:47:45.142Z,22.15
2019-01-29T12:50:27.951Z,14.58
2019-01-29T12:53:10.385Z,9.43
2019-01-29T12:55:39.177Z,11.60
2019-01-29T12:58:07.949Z,15.30
2019-01-29T13:00:38.214Z,14.15
2019-01-29T13:03:07.120Z,11.20
2019-01-29T13:05:35.582Z,12.98
2019-01-29T13:08:04.661Z,11.45
2019-01-29T13:10:33.113Z,15.18
2019-01-29T13:13:01.575Z,9.85
2019-01-29T13:15:32.441Z,9.65
2019-01-29T13:18:01.656Z,11.70
2019-01-29T13:20:30.770Z,12.25
2019-01-29T13:22:59.279Z,11.78
2019-01-29T13:25:27.754Z,13.13
2019-01-29T13:27:56.211Z,12.23
2019-01-29T13:30:37.757Z,8.43
2019-01-29T13:33:08.868Z,12.40
2019-01-29T13:35:38.639Z,12.82
2019-01-29T13:38:09.150Z,15.58
2019-01-29T13:40:37.686Z,11.38
2019-01-29T13:43:07.086Z,8.45
2019-01-29T13:45:35.800Z,12.05
2019-01-29T13:48:04.851Z,11.30
2019-01-29T13:50:36.276Z,10.58
2019-01-29T13:53:05.368Z,9.38
2019-01-29T13:55:35.468Z,13.55
2019-01-29T13:58:04.902Z,13.72
2019-01-29T14:00:35.278Z,11.63
2019-01-29T14:03:03.799Z,9.18
2019-01-29T14:05:32.247Z,11.78
2019-01-29T14:08:00.768Z,12.70
2019-01-29T14:10:29.390Z,8.58
2019-01-29T14:12:57.858Z,9.25
2019-01-29T14:15:31.126Z,12.60
2019-01-29T14:17:59.671Z,11.95
2019-01-29T14:20:28.127Z,13.20
2019-01-29T14:22:56.623Z,17.05
2019-01-29T14:25:25.243Z,10.05
2019-01-29T14:27:53.717Z,13.28
2019-01-29T14:30:29.953Z,13.30
2019-01-29T14:32:58.531Z,12.90
2019-01-29T14:35:27.053Z,8.70
2019-01-29T14:38:01.380Z,9.53
2019-01-29T14:40:31.194Z,12.07
2019-01-29T14:42:59.706Z,13.83
2019-01-29T14:45:32.241Z,11.18
2019-01-29T14:48:00.730Z,13.22
2019-01-29T14:50:29.603Z,11.12
2019-01-29T14:52:58.060Z,12.98
2019-01-29T14:55:26.676Z,13.18
2019-01-29T14:57:55.192Z,12.43
2019-01-29T15:00:37.523Z,10.48
2019-01-29T15:03:06.169Z,12.88
2019-01-29T15:05:34.631Z,11.55
2019-01-29T15:08:03.073Z,11.53
2019-01-29T15:10:32.474Z,11.38
2019-01-29T15:13:00.992Z,19.17
2019-01-29T15:15:36.237Z,12.40
2019-01-29T15:18:06.941Z,11.22
2019-01-29T15:20:35.403Z,10.85
2019-01-29T15:23:04.036Z,15.43
2019-01-29T15:25:32.512Z,11.20
2019-01-29T15:28:00.987Z,17.80
2019-01-29T15:30:31.575Z,18.73
2019-01-29T15:33:00.022Z,15.48
2019-01-29T15:35:28.492Z,12.15
2019-01-29T15:37:56.936Z,14.58
2019-01-29T15:40:25.415Z,16.37
2019-01-29T15:42:54.212Z,20.77
2019-01-29T15:45:26.217Z,13.25
2019-01-29T15:47:54.683Z,13.45
2019-01-29T15:50:24.578Z,13.65
2019-01-29T15:52:53.107Z,12.75
2019-01-29T15:55:22.121Z,11.70
2019-01-29T15:57:50.744Z,16.45
2019-01-29T16:00:27.977Z,11.78
2019-01-29T16:02:56.434Z,15.90
2019-01-29T16:05:33.183Z,16.57
2019-01-29T16:08:01.848Z,13.28
2019-01-29T16:10:39.538Z,17.80
2019-01-29T16:13:03.652Z,16.17
2019-01-29T16:15:32.663Z,17.25
2019-01-29T16:18:01.120Z,16.90
2019-01-29T16:20:30.030Z,18.62
2019-01-29T16:22:58.509Z,16.55
2019-01-29T16:25:29.731Z,14.78
2019-01-29T16:27:58.188Z,18.42
2019-01-29T16:30:28.701Z,19.73
2019-01-29T16:32:57.594Z,18.15
2019-01-29T16:35:31.685Z,14.78
2019-01-29T16:38:00.503Z,17.62
2019-01-29T16:40:32.124Z,15.38
2019-01-29T16:43:02.964Z,14.63
2019-01-29T16:45:35.783Z,19.65
2019-01-29T16:48:06.483Z,13.58
2019-01-29T16:50:34.985Z,14.73
2019-01-29T16:53:03.464Z,17.23
2019-01-29T16:55:32.080Z,21.62
2019-01-29T16:58:00.544Z,14.60
2019-01-29T17:00:31.133Z,16.55
2019-01-29T17:02:59.656Z,17.12
2019-01-29T17:05:29.364Z,56.15
2019-01-29T17:07:57.894Z,18.40
2019-01-29T17:10:28.301Z,16.52
2019-01-29T17:12:56.798Z,19.05
2019-01-29T17:15:30.220Z,15.40
2019-01-29T17:18:00.849Z,23.12
2019-01-29T17:20:35.084Z,16.60
2019-01-29T17:23:04.731Z,15.20
2019-01-29T17:25:33.299Z,21.15
2019-01-29T17:28:01.739Z,18.67
2019-01-29T17:30:42.088Z,16.10
2019-01-29T17:33:11.462Z,21.33
2019-01-29T17:35:40.956Z,16.77
2019-01-29T17:38:09.555Z,13.08
2019-01-29T17:40:38.007Z,18.23
2019-01-29T17:43:07.728Z,24.02
2019-01-29T17:45:38.877Z,11.68
2019-01-29T17:48:07.429Z,17.30
2019-01-29T17:50:38.429Z,13.13
2019-01-29T17:53:07.101Z,22.42
2019-01-29T17:55:37.091Z,20.20
2019-01-29T17:58:06.626Z,17.48
2019-01-29T18:00:36.892Z,25.17
2019-01-29T18:03:06.293Z,27.62
2019-01-29T18:05:35.067Z,16.35
2019-01-29T18:08:03.705Z,20.50
2019-01-29T18:10:32.185Z,17.62
2019-01-29T18:13:00.657Z,15.20
2019-01-29T18:15:31.179Z,20.55
2019-01-29T18:17:59.741Z,21.45
2019-01-29T18:20:28.553Z,21.65
2019-01-29T18:22:57.020Z,19.60
2019-01-29T18:25:25.751Z,16.52
2019-01-29T18:28:00.891Z,14.03
2019-01-29T18:30:30.118Z,16.37
2019-01-29T18:32:58.647Z,20.57
2019-01-29T18:35:27.207Z,11.90
2019-01-29T18:37:55.748Z,13.65
2019-01-29T18:40:36.132Z,19.57
2019-01-29T18:43:04.774Z,19.77
2019-01-29T18:45:33.273Z,13.10
2019-01-29T18:48:01.739Z,12.75
2019-01-29T18:50:30.258Z,16.10
2019-01-29T18:52:58.666Z,14.10
2019-01-29T18:55:27.165Z,16.20
2019-01-29T18:57:55.638Z,24.82
2019-01-29T19:00:26.062Z,15.03
2019-01-29T19:02:54.666Z,14.30
2019-01-29T19:05:27.382Z,18.87
2019-01-29T19:07:56.148Z,20.82
2019-01-29T19:10:25.195Z,15.75
2019-01-29T19:12:54.955Z,12.70
2019-01-29T19:15:25.950Z,18.85
2019-01-29T19:17:54.491Z,12.63
2019-01-29T19:20:25.258Z,23.10
2019-01-29T19:22:53.733Z,12.30
2019-01-29T19:25:22.727Z,14.68
2019-01-29T19:27:51.505Z,15.08
2019-01-29T19:30:22.348Z,16.60
2019-01-29T19:32:50.909Z,12.43
2019-01-29T19:35:19.413Z,12.15
2019-01-29T19:37:47.885Z,11.68
2019-01-29T19:40:18.262Z,17.40
2019-01-29T19:42:48.339Z,10.43
2019-01-29T19:45:19.989Z,19.75
2019-01-29T19:47:48.470Z,12.53
2019-01-29T19:50:19.768Z,14.38
2019-01-29T19:52:48.334Z,12.58
2019-01-29T19:55:16.823Z,15.13
2019-01-29T19:57:45.396Z,12.88
2019-01-29T20:00:22.416Z,10.68
2019-01-29T20:02:51.018Z,14.63
2019-01-29T20:05:19.725Z,10.95
2019-01-29T20:07:48.306Z,14.00
2019-01-29T20:10:20.385Z,15.90
2019-01-29T20:12:51.660Z,12.88
2019-01-29T20:15:22.485Z,11.65
2019-01-29T20:17:52.227Z,15.93
2019-01-29T20:20:23.237Z,13.43
2019-01-29T20:22:53.093Z,11.90
2019-01-29T20:25:21.593Z,12.93
2019-01-29T20:27:50.066Z,15.80
2019-01-29T20:30:27.144Z,11.73
2019-01-29T20:32:55.651Z,13.62
2019-01-29T20:35:24.294Z,18.67
2019-01-29T20:37:54.219Z,19.37
2019-01-29T20:40:23.841Z,18.87
2019-01-29T20:42:52.347Z,13.18
2019-01-29T20:45:20.969Z,15.63
2019-01-29T20:47:49.585Z,19.62
2019-01-29T20:50:23.980Z,22.35
2019-01-29T20:52:52.468Z,21.15
2019-01-29T20:55:22.838Z,14.05
2019-01-29T20:57:52.211Z,13.78
2019-01-29T21:00:26.281Z,17.60
2019-01-29T21:02:54.964Z,16.05
2019-01-29T21:05:23.552Z,12.63
2019-01-29T21:07:52.024Z,17.67
2019-01-29T21:10:23.083Z,14.43
2019-01-29T21:12:51.658Z,15.70
2019-01-29T21:15:22.709Z,19.30
2019-01-29T21:17:51.305Z,14.10
2019-01-29T21:20:22.028Z,15.88
2019-01-29T21:22:50.484Z,18.85
2019-01-29T21:25:19.667Z,12.05
2019-01-29T21:27:48.202Z,16.00
2019-01-29T21:30:25.443Z,22.90
2019-01-29T21:32:53.884Z,15.53
2019-01-29T21:35:22.378Z,18.15
2019-01-29T21:37:50.839Z,16.75
2019-01-29T21:40:19.495Z,17.15
2019-01-29T21:42:47.985Z,17.45
2019-01-29T21:45:21.353Z,16.82
2019-01-29T21:47:49.838Z,17.62
2019-01-29T21:50:23.760Z,22.93
2019-01-29T21:52:52.225Z,19.85
2019-01-29T21:55:20.979Z,15.93
2019-01-29T21:57:49.527Z,15.20
2019-01-29T22:00:21.042Z,16.97
2019-01-29T22:02:50.616Z,17.95
2019-01-29T22:05:19.142Z,15.38
2019-01-29T22:07:47.627Z,17.98
2019-01-29T22:10:16.955Z,16.50
2019-01-29T22:12:45.455Z,16.27
2019-01-29T22:15:22.890Z,18.92
2019-01-29T22:17:51.351Z,17.12
2019-01-29T22:20:24.437Z,19.48
2019-01-29T22:22:52.916Z,19.57
2019-01-29T22:25:23.615Z,19.77
2019-01-29T22:27:52.158Z,19.32
2019-01-29T22:30:23.626Z,21.97
2019-01-29T22:32:52.189Z,18.35
2019-01-29T22:35:20.726Z,18.10
2019-01-29T22:37:49.187Z,17.12
2019-01-29T22:40:25.413Z,16.85
2019-01-29T22:42:54.236Z,21.70
2019-01-29T22:45:22.685Z,20.52
2019-01-29T22:47:51.220Z,17.50
2019-01-29T22:50:28.410Z,24.15
2019-01-29T22:52:57.045Z,16.25
2019-01-29T22:55:25.717Z,14.78
2019-01-29T22:57:54.325Z,14.45
2019-01-29T23:00:35.606Z,19.52
2019-01-29T23:03:04.064Z,20.40
2019-01-29T23:05:35.186Z,18.45
2019-01-29T23:08:03.667Z,18.70
2019-01-29T23:10:32.261Z,20.00
2019-01-29T23:13:00.724Z,19.48
2019-01-29T23:15:29.186Z,21.75
2019-01-29T23:17:57.627Z,22.27
2019-01-29T23:20:26.437Z,21.95
2019-01-29T23:22:54.874Z,18.40
2019-01-29T23:25:23.343Z,22.22
2019-01-29T23:27:51.814Z,21.97
2019-01-29T23:30:21.628Z,26.00
2019-01-29T23:32:50.092Z,21.45
2019-01-29T23:35:18.622Z,29.32
2019-01-29T23:37:47.096Z,27.32
2019-01-29T23:40:16.894Z,38.98
2019-01-29T23:42:45.373Z,21.97
2019-01-29T23:45:15.166Z,21.73
2019-01-29T23:47:43.617Z,22.60
2019-01-29T23:50:14.502Z,24.65
2019-01-29T23:52:43.046Z,30.82
2019-01-29T23:55:12.427Z,26.33
2019-01-29T23:57:40.910Z,28.25
